B21HL ZGSZ-VLVT
Flight info
| Callsign | B21HL |
|---|---|
| Flight time | 1h 50m |
| Altitude | 40100 |
| Route | TOMUD2 TOMUD R200 BIGRO G221 SAMAS A202 ASSAD/K0852F400 A206 VIN R335 IDOTA/N0460F400 R335 ALPHA ALPHA1A |
| Aircraft | E190/M-SDE1E2E3FGHIJ3J4J7P2RWXY/LB1D1G1 |
Departure
| Time | 2026-05-07 10:07 |
|---|---|
| Airport | Shenzhen Bao'an International Airport (ZGSZ) |
Arrival
| Time | 2026-05-07 11:57 |
|---|---|
| Airport | Wattay International Airport (VLVT) |
| Time | Latitude | Longitude | Altitude | Speed | Heading |
|---|---|---|---|---|---|
| 2026-05-07 09:50 | 22.64484 | 113.81300 | 21 ft | 0 kts | 63° |
| 2026-05-07 09:59 | 22.64483 | 113.81297 | 21 ft | 2 kts | 63° |
| 2026-05-07 09:59 | 22.64476 | 113.81283 | 21 ft | 2 kts | 62° |
| 2026-05-07 09:59 | 22.64469 | 113.81268 | 21 ft | 2 kts | 63° |
| 2026-05-07 09:59 | 22.64464 | 113.81259 | 21 ft | 2 kts | 53° |
| 2026-05-07 10:00 | 22.64452 | 113.81249 | 21 ft | 2 kts | 17° |
| 2026-05-07 10:00 | 22.64437 | 113.81248 | 21 ft | 2 kts | 346° |
| 2026-05-07 10:00 | 22.64429 | 113.81251 | 21 ft | 1 kts | 328° |
| 2026-05-07 10:00 | 22.64425 | 113.81254 | 21 ft | 0 kts | 332° |
| 2026-05-07 10:02 | 22.64426 | 113.81254 | 21 ft | 0 kts | 333° |
| 2026-05-07 10:02 | 22.64442 | 113.81245 | 21 ft | 5 kts | 333° |
| 2026-05-07 10:02 | 22.64492 | 113.81218 | 21 ft | 9 kts | 333° |
| 2026-05-07 10:02 | 22.64551 | 113.81185 | 21 ft | 10 kts | 333° |
| 2026-05-07 10:03 | 22.64579 | 113.81131 | 21 ft | 9 kts | 251° |
| 2026-05-07 10:03 | 22.64549 | 113.81060 | 21 ft | 10 kts | 263° |
| 2026-05-07 10:03 | 22.64598 | 113.81015 | 21 ft | 10 kts | 333° |
| 2026-05-07 10:03 | 22.64677 | 113.80971 | 21 ft | 17 kts | 333° |
| 2026-05-07 10:04 | 22.64795 | 113.80904 | 21 ft | 19 kts | 334° |
| 2026-05-07 10:04 | 22.64873 | 113.80821 | 21 ft | 15 kts | 250° |
| 2026-05-07 10:04 | 22.64910 | 113.80745 | 21 ft | 12 kts | 332° |
| 2026-05-07 10:04 | 22.65015 | 113.80687 | 21 ft | 19 kts | 333° |
| 2026-05-07 10:05 | 22.65140 | 113.80617 | 21 ft | 20 kts | 334° |
| 2026-05-07 10:05 | 22.65275 | 113.80544 | 21 ft | 22 kts | 332° |
| 2026-05-07 10:05 | 22.65342 | 113.80441 | 21 ft | 18 kts | 239° |
| 2026-05-07 10:05 | 22.65270 | 113.80336 | 21 ft | 13 kts | 184° |
| 2026-05-07 10:06 | 22.65255 | 113.80341 | 21 ft | 0 kts | 154° |
| 2026-05-07 10:06 | 22.65043 | 113.80450 | 21 ft | 72 kts | 150° |
| 2026-05-07 10:06 | 22.64399 | 113.80807 | 21 ft | 135 kts | 155° |
| 2026-05-07 10:07 | 22.63469 | 113.81319 | 350 ft | 157 kts | 155° |
| 2026-05-07 10:07 | 22.62414 | 113.81785 | 851 ft | 171 kts | 174° |
| 2026-05-07 10:07 | 22.61207 | 113.81519 | 1433 ft | 187 kts | 202° |
| 2026-05-07 10:07 | 22.59952 | 113.80934 | 2020 ft | 210 kts | 201° |
| 2026-05-07 10:08 | 22.58573 | 113.80305 | 2769 ft | 225 kts | 201° |
| 2026-05-07 10:08 | 22.57073 | 113.79627 | 3609 ft | 239 kts | 202° |
| 2026-05-07 10:08 | 22.55541 | 113.78937 | 4520 ft | 247 kts | 202° |
| 2026-05-07 10:08 | 22.53943 | 113.78220 | 5531 ft | 251 kts | 203° |
| 2026-05-07 10:09 | 22.52344 | 113.77503 | 6521 ft | 253 kts | 204° |
| 2026-05-07 10:09 | 22.50722 | 113.76776 | 7465 ft | 256 kts | 204° |
| 2026-05-07 10:09 | 22.49115 | 113.75961 | 8350 ft | 258 kts | 219° |
| 2026-05-07 10:09 | 22.48066 | 113.74420 | 9120 ft | 262 kts | 253° |
| 2026-05-07 10:10 | 22.47827 | 113.72491 | 9900 ft | 267 kts | 265° |
| 2026-05-07 10:10 | 22.47687 | 113.70507 | 10813 ft | 267 kts | 266° |
| 2026-05-07 10:10 | 22.47543 | 113.68502 | 11696 ft | 267 kts | 266° |
| 2026-05-07 10:10 | 22.47399 | 113.66538 | 12516 ft | 269 kts | 266° |
| 2026-05-07 10:11 | 22.47252 | 113.64522 | 13310 ft | 271 kts | 266° |
| 2026-05-07 10:11 | 22.47102 | 113.62489 | 14072 ft | 274 kts | 266° |
| 2026-05-07 10:11 | 22.46950 | 113.60448 | 14789 ft | 278 kts | 264° |
| 2026-05-07 10:11 | 22.46283 | 113.58491 | 15424 ft | 287 kts | 236° |
| 2026-05-07 10:12 | 22.44774 | 113.56890 | 15521 ft | 317 kts | 222° |
| 2026-05-07 10:12 | 22.43030 | 113.55300 | 15695 ft | 339 kts | 223° |
| 2026-05-07 10:12 | 22.41207 | 113.53625 | 16192 ft | 349 kts | 223° |
| 2026-05-07 10:12 | 22.39363 | 113.51923 | 16922 ft | 351 kts | 223° |
| 2026-05-07 10:13 | 22.37332 | 113.50490 | 17674 ft | 356 kts | 204° |
| 2026-05-07 10:13 | 22.34930 | 113.49796 | 18410 ft | 359 kts | 196° |
| 2026-05-07 10:13 | 22.32473 | 113.49192 | 19049 ft | 363 kts | 196° |
| 2026-05-07 10:13 | 22.29975 | 113.48579 | 19649 ft | 368 kts | 196° |
| 2026-05-07 10:14 | 22.27485 | 113.47971 | 20222 ft | 372 kts | 196° |
| 2026-05-07 10:14 | 22.24930 | 113.47323 | 20791 ft | 375 kts | 201° |
| 2026-05-07 10:14 | 22.22699 | 113.45994 | 21308 ft | 370 kts | 225° |
| 2026-05-07 10:14 | 22.21178 | 113.43788 | 21847 ft | 367 kts | 248° |
| 2026-05-07 10:15 | 22.20189 | 113.41268 | 22446 ft | 368 kts | 250° |
| 2026-05-07 10:15 | 22.19232 | 113.38723 | 22993 ft | 371 kts | 250° |
| 2026-05-07 10:15 | 22.18257 | 113.36105 | 23502 ft | 375 kts | 250° |
| 2026-05-07 10:15 | 22.17290 | 113.33497 | 23993 ft | 379 kts | 250° |
| 2026-05-07 10:16 | 22.16309 | 113.30852 | 24502 ft | 383 kts | 250° |
| 2026-05-07 10:16 | 22.15313 | 113.28167 | 25004 ft | 386 kts | 250° |
| 2026-05-07 10:16 | 22.14312 | 113.25470 | 25495 ft | 390 kts | 250° |
| 2026-05-07 10:16 | 22.13265 | 113.22804 | 25958 ft | 394 kts | 248° |
| 2026-05-07 10:17 | 22.12141 | 113.20103 | 26424 ft | 397 kts | 248° |
| 2026-05-07 10:17 | 22.11002 | 113.17363 | 26879 ft | 400 kts | 248° |
| 2026-05-07 10:17 | 22.09871 | 113.14643 | 27301 ft | 404 kts | 249° |
| 2026-05-07 10:17 | 22.08706 | 113.11842 | 27735 ft | 408 kts | 249° |
| 2026-05-07 10:18 | 22.07551 | 113.09068 | 28160 ft | 411 kts | 249° |
| 2026-05-07 10:18 | 22.06381 | 113.06258 | 28579 ft | 414 kts | 249° |
| 2026-05-07 10:18 | 22.05205 | 113.03438 | 28998 ft | 417 kts | 249° |
| 2026-05-07 10:18 | 22.04013 | 113.00577 | 29411 ft | 419 kts | 249° |
| 2026-05-07 10:19 | 22.02867 | 112.97689 | 29827 ft | 421 kts | 250° |
| 2026-05-07 10:19 | 22.01737 | 112.94775 | 30241 ft | 424 kts | 250° |
| 2026-05-07 10:19 | 22.00601 | 112.91856 | 30627 ft | 426 kts | 250° |
| 2026-05-07 10:19 | 21.99455 | 112.88914 | 30996 ft | 429 kts | 250° |
| 2026-05-07 10:20 | 21.98289 | 112.85926 | 31374 ft | 432 kts | 250° |
| 2026-05-07 10:20 | 21.97124 | 112.82941 | 31735 ft | 434 kts | 250° |
| 2026-05-07 10:20 | 21.95934 | 112.79956 | 32072 ft | 437 kts | 249° |
| 2026-05-07 10:20 | 21.94710 | 112.76921 | 32391 ft | 440 kts | 250° |
| 2026-05-07 10:21 | 21.93496 | 112.73909 | 32711 ft | 444 kts | 250° |
| 2026-05-07 10:21 | 21.92253 | 112.70828 | 33092 ft | 446 kts | 250° |
| 2026-05-07 10:21 | 21.91014 | 112.67759 | 33459 ft | 448 kts | 250° |
| 2026-05-07 10:21 | 21.89769 | 112.64674 | 33837 ft | 450 kts | 250° |
| 2026-05-07 10:22 | 21.88531 | 112.61613 | 34205 ft | 452 kts | 250° |
| 2026-05-07 10:22 | 21.87270 | 112.58491 | 34589 ft | 453 kts | 250° |
| 2026-05-07 10:22 | 21.86014 | 112.55389 | 34982 ft | 454 kts | 250° |
| 2026-05-07 10:22 | 21.84756 | 112.52231 | 35355 ft | 455 kts | 250° |
| 2026-05-07 10:23 | 21.83518 | 112.49107 | 35680 ft | 456 kts | 250° |
| 2026-05-07 10:23 | 21.82278 | 112.45979 | 35948 ft | 458 kts | 250° |
| 2026-05-07 10:23 | 21.81018 | 112.42802 | 36184 ft | 460 kts | 250° |
| 2026-05-07 10:23 | 21.79756 | 112.39625 | 36423 ft | 462 kts | 250° |
| 2026-05-07 10:24 | 21.78499 | 112.36464 | 36663 ft | 463 kts | 250° |
| 2026-05-07 10:24 | 21.77225 | 112.33260 | 36975 ft | 462 kts | 249° |
| 2026-05-07 10:24 | 21.75972 | 112.30112 | 37291 ft | 461 kts | 249° |
| 2026-05-07 10:24 | 21.74704 | 112.26926 | 37619 ft | 461 kts | 249° |
| 2026-05-07 10:25 | 21.73445 | 112.23767 | 37957 ft | 459 kts | 249° |
| 2026-05-07 10:25 | 21.72192 | 112.20624 | 38272 ft | 458 kts | 249° |
| 2026-05-07 10:25 | 21.70935 | 112.17473 | 38600 ft | 457 kts | 249° |
| 2026-05-07 10:25 | 21.69685 | 112.14341 | 38912 ft | 457 kts | 249° |
| 2026-05-07 10:26 | 21.68436 | 112.11216 | 39192 ft | 457 kts | 250° |
| 2026-05-07 10:26 | 21.67184 | 112.08083 | 39464 ft | 456 kts | 250° |
| 2026-05-07 10:26 | 21.65919 | 112.04922 | 39729 ft | 456 kts | 250° |
| 2026-05-07 10:26 | 21.64679 | 112.01823 | 39961 ft | 452 kts | 250° |
| 2026-05-07 10:27 | 21.63437 | 111.98722 | 39963 ft | 448 kts | 250° |
| 2026-05-07 10:27 | 21.60946 | 111.92506 | 39980 ft | 454 kts | 250° |
| 2026-05-07 10:28 | 21.58434 | 111.86252 | 39978 ft | 455 kts | 250° |
| 2026-05-07 10:28 | 21.55230 | 111.80418 | 39980 ft | 462 kts | 233° |
| 2026-05-07 10:29 | 21.51043 | 111.75170 | 39968 ft | 462 kts | 233° |
| 2026-05-07 10:29 | 21.46855 | 111.69901 | 39963 ft | 463 kts | 233° |
| 2026-05-07 10:30 | 21.40581 | 111.62015 | 39961 ft | 462 kts | 233° |
| 2026-05-07 10:30 | 21.36419 | 111.56791 | 39962 ft | 463 kts | 233° |
| 2026-05-07 10:31 | 21.32215 | 111.51517 | 39962 ft | 463 kts | 233° |
| 2026-05-07 10:31 | 21.28017 | 111.46257 | 39959 ft | 463 kts | 233° |
| 2026-05-07 10:32 | 21.23844 | 111.41032 | 39961 ft | 463 kts | 233° |
| 2026-05-07 10:32 | 21.19632 | 111.35764 | 39962 ft | 463 kts | 233° |
| 2026-05-07 10:33 | 21.15443 | 111.30530 | 39967 ft | 463 kts | 232° |
| 2026-05-07 10:33 | 21.11267 | 111.25317 | 39968 ft | 463 kts | 232° |
| 2026-05-07 10:34 | 21.07038 | 111.20043 | 39967 ft | 463 kts | 232° |
| 2026-05-07 10:34 | 21.02858 | 111.14835 | 39966 ft | 463 kts | 233° |
| 2026-05-07 10:35 | 20.98646 | 111.09591 | 39969 ft | 464 kts | 232° |
| 2026-05-07 10:35 | 20.94462 | 111.04378 | 39964 ft | 464 kts | 233° |
| 2026-05-07 10:36 | 20.90248 | 110.99096 | 39963 ft | 465 kts | 233° |
| 2026-05-07 10:36 | 20.86034 | 110.93818 | 39959 ft | 464 kts | 233° |
| 2026-05-07 10:37 | 20.81833 | 110.88561 | 39959 ft | 465 kts | 232° |
| 2026-05-07 10:37 | 20.77639 | 110.83318 | 39954 ft | 464 kts | 233° |
| 2026-05-07 10:38 | 20.73443 | 110.78079 | 39952 ft | 464 kts | 233° |
| 2026-05-07 10:38 | 20.69253 | 110.72851 | 39949 ft | 465 kts | 232° |
| 2026-05-07 10:39 | 20.65035 | 110.67593 | 39948 ft | 464 kts | 232° |
| 2026-05-07 10:39 | 20.60824 | 110.62348 | 39944 ft | 465 kts | 232° |
| 2026-05-07 10:40 | 20.56611 | 110.57107 | 39941 ft | 465 kts | 232° |
| 2026-05-07 10:40 | 20.52410 | 110.51885 | 39940 ft | 465 kts | 232° |
| 2026-05-07 10:41 | 20.48262 | 110.46585 | 39942 ft | 465 kts | 234° |
| 2026-05-07 10:41 | 20.44193 | 110.41247 | 39937 ft | 465 kts | 234° |
| 2026-05-07 10:42 | 20.40095 | 110.35880 | 39940 ft | 465 kts | 234° |
| 2026-05-07 10:42 | 20.36019 | 110.30550 | 39942 ft | 465 kts | 233° |
| 2026-05-07 10:43 | 20.31942 | 110.25222 | 39941 ft | 465 kts | 233° |
| 2026-05-07 10:43 | 20.27887 | 110.19859 | 39932 ft | 465 kts | 234° |
| 2026-05-07 10:44 | 20.23861 | 110.14484 | 39932 ft | 465 kts | 234° |
| 2026-05-07 10:44 | 20.19840 | 110.09120 | 39927 ft | 465 kts | 234° |
| 2026-05-07 10:45 | 20.15801 | 110.03740 | 39928 ft | 465 kts | 234° |
| 2026-05-07 10:45 | 20.11754 | 109.98353 | 39927 ft | 465 kts | 234° |
| 2026-05-07 10:46 | 20.07721 | 109.92990 | 39929 ft | 465 kts | 234° |
| 2026-05-07 10:46 | 20.04353 | 109.88514 | 39922 ft | 466 kts | 234° |
| 2026-05-07 10:47 | 19.99620 | 109.82230 | 39925 ft | 466 kts | 234° |
| 2026-05-07 10:47 | 19.95562 | 109.76849 | 39924 ft | 466 kts | 234° |
| 2026-05-07 10:48 | 19.91529 | 109.71506 | 39928 ft | 466 kts | 234° |
| 2026-05-07 10:48 | 19.87477 | 109.66141 | 39927 ft | 466 kts | 234° |
| 2026-05-07 10:49 | 19.83411 | 109.60764 | 39931 ft | 466 kts | 234° |
| 2026-05-07 10:49 | 19.79335 | 109.55379 | 39929 ft | 465 kts | 234° |
| 2026-05-07 10:50 | 19.75275 | 109.50017 | 39932 ft | 466 kts | 234° |
| 2026-05-07 10:50 | 19.71217 | 109.44665 | 39936 ft | 466 kts | 234° |
| 2026-05-07 10:51 | 19.67141 | 109.39294 | 39938 ft | 466 kts | 234° |
| 2026-05-07 10:51 | 19.63084 | 109.33952 | 39947 ft | 466 kts | 233° |
| 2026-05-07 10:52 | 19.59016 | 109.28600 | 39951 ft | 466 kts | 233° |
| 2026-05-07 10:52 | 19.54932 | 109.23233 | 39955 ft | 467 kts | 233° |
| 2026-05-07 10:53 | 19.50857 | 109.17896 | 39960 ft | 467 kts | 233° |
| 2026-05-07 10:53 | 19.46725 | 109.12534 | 39957 ft | 467 kts | 233° |
| 2026-05-07 10:54 | 19.42632 | 109.07227 | 39966 ft | 466 kts | 233° |
| 2026-05-07 10:54 | 19.38519 | 109.01898 | 39970 ft | 467 kts | 233° |
| 2026-05-07 10:55 | 19.34414 | 108.96583 | 39958 ft | 467 kts | 233° |
| 2026-05-07 10:55 | 19.30295 | 108.91255 | 39948 ft | 466 kts | 233° |
| 2026-05-07 10:56 | 19.26175 | 108.85931 | 39945 ft | 467 kts | 233° |
| 2026-05-07 10:56 | 19.22056 | 108.80613 | 39944 ft | 467 kts | 233° |
| 2026-05-07 10:57 | 19.17953 | 108.75317 | 39945 ft | 467 kts | 233° |
| 2026-05-07 10:57 | 19.13824 | 108.69994 | 39939 ft | 468 kts | 233° |
| 2026-05-07 10:58 | 19.09695 | 108.64675 | 39937 ft | 468 kts | 233° |
| 2026-05-07 10:58 | 19.05558 | 108.59351 | 39937 ft | 468 kts | 233° |
| 2026-05-07 10:59 | 19.01424 | 108.54034 | 39934 ft | 467 kts | 233° |
| 2026-05-07 10:59 | 18.97293 | 108.48727 | 39931 ft | 467 kts | 233° |
| 2026-05-07 11:00 | 18.93163 | 108.43425 | 39932 ft | 468 kts | 233° |
| 2026-05-07 11:00 | 18.89006 | 108.38094 | 39926 ft | 469 kts | 233° |
| 2026-05-07 11:01 | 18.84859 | 108.32779 | 39931 ft | 469 kts | 233° |
| 2026-05-07 11:01 | 18.80704 | 108.27458 | 39929 ft | 469 kts | 233° |
| 2026-05-07 11:02 | 18.76552 | 108.22147 | 39926 ft | 469 kts | 233° |
| 2026-05-07 11:02 | 18.72372 | 108.16805 | 39923 ft | 469 kts | 233° |
| 2026-05-07 11:03 | 18.68230 | 108.11514 | 39919 ft | 469 kts | 233° |
| 2026-05-07 11:03 | 18.64065 | 108.06200 | 39912 ft | 469 kts | 233° |
| 2026-05-07 11:04 | 18.62034 | 108.03611 | 39843 ft | 449 kts | 233° |
| 2026-05-07 11:04 | 18.60069 | 108.01106 | 39812 ft | 438 kts | 233° |
| 2026-05-07 11:04 | 18.56119 | 107.96072 | 39821 ft | 452 kts | 233° |
| 2026-05-07 11:05 | 18.52062 | 107.90908 | 39815 ft | 460 kts | 233° |
| 2026-05-07 11:05 | 18.47997 | 107.85738 | 39811 ft | 459 kts | 233° |
| 2026-05-07 11:06 | 18.43920 | 107.80557 | 39813 ft | 459 kts | 233° |
| 2026-05-07 11:06 | 18.39866 | 107.75404 | 39814 ft | 459 kts | 234° |
| 2026-05-07 11:07 | 18.36774 | 107.69636 | 39823 ft | 452 kts | 253° |
| 2026-05-07 11:07 | 18.35372 | 107.63200 | 39812 ft | 449 kts | 266° |
| 2026-05-07 11:08 | 18.35751 | 107.56757 | 39819 ft | 444 kts | 285° |
| 2026-05-07 11:08 | 18.37572 | 107.50580 | 39816 ft | 443 kts | 285° |
| 2026-05-07 11:09 | 18.38926 | 107.44235 | 39806 ft | 444 kts | 283° |
| 2026-05-07 11:09 | 18.40188 | 107.37913 | 39814 ft | 444 kts | 283° |
| 2026-05-07 11:10 | 18.41445 | 107.31561 | 39816 ft | 444 kts | 283° |
| 2026-05-07 11:10 | 18.42701 | 107.25203 | 39810 ft | 444 kts | 283° |
| 2026-05-07 11:11 | 18.43960 | 107.18817 | 39815 ft | 445 kts | 283° |
| 2026-05-07 11:11 | 18.45217 | 107.12430 | 39814 ft | 445 kts | 283° |
| 2026-05-07 11:12 | 18.46463 | 107.06085 | 39818 ft | 445 kts | 283° |
| 2026-05-07 11:12 | 18.47713 | 106.99703 | 39822 ft | 443 kts | 283° |
| 2026-05-07 11:13 | 18.48950 | 106.93370 | 39819 ft | 444 kts | 283° |
| 2026-05-07 11:13 | 18.50189 | 106.87017 | 39820 ft | 444 kts | 283° |
| 2026-05-07 11:14 | 18.51432 | 106.80633 | 39823 ft | 443 kts | 283° |
| 2026-05-07 11:14 | 18.52669 | 106.74269 | 39819 ft | 443 kts | 283° |
| 2026-05-07 11:15 | 18.53901 | 106.67916 | 39820 ft | 444 kts | 282° |
| 2026-05-07 11:15 | 18.55132 | 106.61553 | 39816 ft | 443 kts | 282° |
| 2026-05-07 11:16 | 18.56371 | 106.55203 | 39817 ft | 443 kts | 283° |
| 2026-05-07 11:16 | 18.57605 | 106.48910 | 39819 ft | 442 kts | 283° |
| 2026-05-07 11:17 | 18.58848 | 106.42558 | 39819 ft | 442 kts | 283° |
| 2026-05-07 11:17 | 18.60082 | 106.36238 | 39812 ft | 442 kts | 283° |
| 2026-05-07 11:18 | 18.61320 | 106.29893 | 39820 ft | 441 kts | 282° |
| 2026-05-07 11:18 | 18.62552 | 106.23557 | 39822 ft | 441 kts | 282° |
| 2026-05-07 11:19 | 18.63780 | 106.17233 | 39818 ft | 441 kts | 282° |
| 2026-05-07 11:19 | 18.65005 | 106.10919 | 39810 ft | 441 kts | 282° |
| 2026-05-07 11:20 | 18.66220 | 106.04592 | 39810 ft | 441 kts | 282° |
| 2026-05-07 11:20 | 18.67436 | 105.98242 | 39809 ft | 441 kts | 282° |
| 2026-05-07 11:21 | 18.68645 | 105.91914 | 39805 ft | 440 kts | 282° |
| 2026-05-07 11:21 | 18.69846 | 105.85619 | 39803 ft | 439 kts | 282° |
| 2026-05-07 11:22 | 18.71049 | 105.79301 | 39805 ft | 439 kts | 282° |
| 2026-05-07 11:22 | 18.72254 | 105.72960 | 39808 ft | 445 kts | 282° |
| 2026-05-07 11:23 | 18.73255 | 105.66453 | 39816 ft | 454 kts | 273° |
| 2026-05-07 11:23 | 18.72882 | 105.59799 | 39815 ft | 455 kts | 266° |
| 2026-05-07 11:24 | 18.72372 | 105.53182 | 39812 ft | 454 kts | 266° |
| 2026-05-07 11:24 | 18.71865 | 105.46570 | 39813 ft | 452 kts | 266° |
| 2026-05-07 11:25 | 18.71355 | 105.39936 | 39812 ft | 453 kts | 266° |
| 2026-05-07 11:25 | 18.70842 | 105.33304 | 39815 ft | 453 kts | 266° |
| 2026-05-07 11:26 | 18.70326 | 105.26654 | 39815 ft | 453 kts | 266° |
| 2026-05-07 11:26 | 18.69809 | 105.20021 | 39826 ft | 453 kts | 265° |
| 2026-05-07 11:27 | 18.69290 | 105.13401 | 39859 ft | 453 kts | 265° |
| 2026-05-07 11:27 | 18.68779 | 105.06860 | 39889 ft | 452 kts | 265° |
| 2026-05-07 11:28 | 18.68259 | 105.00249 | 39926 ft | 453 kts | 266° |
| 2026-05-07 11:28 | 18.67737 | 104.93635 | 39931 ft | 452 kts | 266° |
| 2026-05-07 11:29 | 18.67215 | 104.87040 | 39936 ft | 451 kts | 266° |
| 2026-05-07 11:29 | 18.66687 | 104.80399 | 39929 ft | 452 kts | 266° |
| 2026-05-07 11:30 | 18.66158 | 104.73795 | 39932 ft | 452 kts | 266° |
| 2026-05-07 11:30 | 18.65629 | 104.67199 | 39941 ft | 454 kts | 266° |
| 2026-05-07 11:31 | 18.65091 | 104.60530 | 39925 ft | 455 kts | 266° |
| 2026-05-07 11:31 | 18.64822 | 104.57207 | 39406 ft | 452 kts | 266° |
| 2026-05-07 11:31 | 18.64561 | 104.53991 | 38946 ft | 437 kts | 266° |
| 2026-05-07 11:32 | 18.64059 | 104.47823 | 38039 ft | 412 kts | 266° |
| 2026-05-07 11:32 | 18.63815 | 104.44823 | 37589 ft | 412 kts | 266° |
| 2026-05-07 11:32 | 18.63566 | 104.41783 | 37137 ft | 419 kts | 267° |
| 2026-05-07 11:33 | 18.63314 | 104.38706 | 36665 ft | 422 kts | 267° |
| 2026-05-07 11:33 | 18.63062 | 104.35637 | 36194 ft | 424 kts | 267° |
| 2026-05-07 11:33 | 18.62808 | 104.32545 | 35725 ft | 424 kts | 266° |
| 2026-05-07 11:33 | 18.62553 | 104.29449 | 35260 ft | 424 kts | 266° |
| 2026-05-07 11:34 | 18.62297 | 104.26353 | 34786 ft | 426 kts | 266° |
| 2026-05-07 11:34 | 18.62041 | 104.23259 | 34310 ft | 427 kts | 266° |
| 2026-05-07 11:34 | 18.61782 | 104.20129 | 33825 ft | 429 kts | 266° |
| 2026-05-07 11:34 | 18.61522 | 104.17007 | 33344 ft | 430 kts | 266° |
| 2026-05-07 11:35 | 18.61259 | 104.13844 | 32867 ft | 431 kts | 266° |
| 2026-05-07 11:35 | 18.60997 | 104.10696 | 32396 ft | 432 kts | 266° |
| 2026-05-07 11:35 | 18.60733 | 104.07546 | 31928 ft | 435 kts | 266° |
| 2026-05-07 11:35 | 18.60467 | 104.04366 | 31432 ft | 437 kts | 266° |
| 2026-05-07 11:36 | 18.60198 | 104.01165 | 30939 ft | 439 kts | 266° |
| 2026-05-07 11:36 | 18.59932 | 103.98000 | 30458 ft | 441 kts | 266° |
| 2026-05-07 11:36 | 18.59660 | 103.94772 | 29968 ft | 439 kts | 266° |
| 2026-05-07 11:36 | 18.59392 | 103.91595 | 29492 ft | 435 kts | 266° |
| 2026-05-07 11:37 | 18.59124 | 103.88426 | 28991 ft | 434 kts | 266° |
| 2026-05-07 11:37 | 18.58848 | 103.85170 | 28501 ft | 452 kts | 265° |
| 2026-05-07 11:37 | 18.58568 | 103.81879 | 28011 ft | 461 kts | 265° |
| 2026-05-07 11:37 | 18.58281 | 103.78505 | 27493 ft | 458 kts | 265° |
| 2026-05-07 11:38 | 18.57996 | 103.75168 | 26978 ft | 454 kts | 265° |
| 2026-05-07 11:38 | 18.57716 | 103.71890 | 26490 ft | 450 kts | 265° |
| 2026-05-07 11:38 | 18.57435 | 103.68619 | 26022 ft | 446 kts | 265° |
| 2026-05-07 11:38 | 18.57158 | 103.65395 | 25535 ft | 444 kts | 265° |
| 2026-05-07 11:39 | 18.56882 | 103.62180 | 25048 ft | 442 kts | 265° |
| 2026-05-07 11:39 | 18.56605 | 103.58960 | 24560 ft | 440 kts | 265° |
| 2026-05-07 11:39 | 18.56331 | 103.55795 | 24143 ft | 436 kts | 265° |
| 2026-05-07 11:39 | 18.56057 | 103.52626 | 23808 ft | 436 kts | 265° |
| 2026-05-07 11:40 | 18.55779 | 103.49425 | 23343 ft | 434 kts | 265° |
| 2026-05-07 11:40 | 18.55510 | 103.46320 | 22879 ft | 431 kts | 265° |
| 2026-05-07 11:40 | 18.55236 | 103.43180 | 22407 ft | 428 kts | 265° |
| 2026-05-07 11:40 | 18.54964 | 103.40054 | 21961 ft | 425 kts | 265° |
| 2026-05-07 11:41 | 18.54695 | 103.36976 | 21513 ft | 422 kts | 265° |
| 2026-05-07 11:41 | 18.54427 | 103.33912 | 21058 ft | 420 kts | 265° |
| 2026-05-07 11:41 | 18.54015 | 103.30911 | 20622 ft | 418 kts | 261° |
| 2026-05-07 11:41 | 18.53521 | 103.27914 | 20186 ft | 415 kts | 261° |
| 2026-05-07 11:42 | 18.53031 | 103.24940 | 19733 ft | 412 kts | 261° |
| 2026-05-07 11:42 | 18.52541 | 103.21973 | 19272 ft | 410 kts | 261° |
| 2026-05-07 11:42 | 18.52055 | 103.19029 | 18798 ft | 407 kts | 261° |
| 2026-05-07 11:42 | 18.51570 | 103.16099 | 18343 ft | 405 kts | 261° |
| 2026-05-07 11:43 | 18.51091 | 103.13207 | 17893 ft | 402 kts | 261° |
| 2026-05-07 11:43 | 18.50616 | 103.10337 | 17446 ft | 399 kts | 261° |
| 2026-05-07 11:43 | 18.50137 | 103.07455 | 16989 ft | 396 kts | 261° |
| 2026-05-07 11:43 | 18.49665 | 103.04605 | 16530 ft | 394 kts | 261° |
| 2026-05-07 11:44 | 18.49197 | 103.01794 | 16100 ft | 390 kts | 261° |
| 2026-05-07 11:44 | 18.48731 | 102.98989 | 15683 ft | 386 kts | 261° |
| 2026-05-07 11:44 | 18.48272 | 102.96235 | 15278 ft | 383 kts | 261° |
| 2026-05-07 11:44 | 18.47813 | 102.93478 | 14843 ft | 381 kts | 261° |
| 2026-05-07 11:45 | 18.47362 | 102.90771 | 14410 ft | 379 kts | 261° |
| 2026-05-07 11:45 | 18.46907 | 102.88049 | 14004 ft | 370 kts | 261° |
| 2026-05-07 11:45 | 18.46473 | 102.85452 | 13611 ft | 355 kts | 261° |
| 2026-05-07 11:45 | 18.46055 | 102.82952 | 13222 ft | 343 kts | 262° |
| 2026-05-07 11:46 | 18.45645 | 102.80500 | 12856 ft | 340 kts | 261° |
| 2026-05-07 11:46 | 18.45235 | 102.78055 | 12480 ft | 338 kts | 261° |
| 2026-05-07 11:46 | 18.44831 | 102.75645 | 12113 ft | 331 kts | 262° |
| 2026-05-07 11:46 | 18.44434 | 102.73283 | 11742 ft | 323 kts | 262° |
| 2026-05-07 11:47 | 18.44050 | 102.71000 | 11372 ft | 315 kts | 261° |
| 2026-05-07 11:47 | 18.43212 | 102.68904 | 11019 ft | 311 kts | 234° |
| 2026-05-07 11:47 | 18.41765 | 102.67245 | 10665 ft | 307 kts | 227° |
| 2026-05-07 11:47 | 18.40268 | 102.65643 | 10286 ft | 305 kts | 226° |
| 2026-05-07 11:48 | 18.38775 | 102.64058 | 9935 ft | 304 kts | 226° |
| 2026-05-07 11:48 | 18.37275 | 102.62470 | 9656 ft | 303 kts | 226° |
| 2026-05-07 11:48 | 18.35807 | 102.60918 | 9333 ft | 302 kts | 226° |
| 2026-05-07 11:48 | 18.34314 | 102.59340 | 8992 ft | 300 kts | 226° |
| 2026-05-07 11:49 | 18.32851 | 102.57795 | 8644 ft | 298 kts | 226° |
| 2026-05-07 11:49 | 18.31382 | 102.56244 | 8308 ft | 296 kts | 226° |
| 2026-05-07 11:49 | 18.29939 | 102.54720 | 7982 ft | 293 kts | 226° |
| 2026-05-07 11:49 | 18.28500 | 102.53203 | 7643 ft | 289 kts | 226° |
| 2026-05-07 11:50 | 18.27101 | 102.51727 | 7307 ft | 281 kts | 225° |
| 2026-05-07 11:50 | 18.25737 | 102.50288 | 6999 ft | 281 kts | 225° |
| 2026-05-07 11:50 | 18.24344 | 102.48820 | 6687 ft | 285 kts | 225° |
| 2026-05-07 11:50 | 18.22936 | 102.47337 | 6369 ft | 284 kts | 225° |
| 2026-05-07 11:51 | 18.21555 | 102.45881 | 6052 ft | 280 kts | 225° |
| 2026-05-07 11:51 | 18.20198 | 102.44452 | 5755 ft | 271 kts | 225° |
| 2026-05-07 11:51 | 18.18889 | 102.43074 | 5469 ft | 262 kts | 225° |
| 2026-05-07 11:51 | 18.17623 | 102.41740 | 5190 ft | 255 kts | 225° |
| 2026-05-07 11:52 | 18.16211 | 102.40675 | 4922 ft | 246 kts | 197° |
| 2026-05-07 11:52 | 18.14577 | 102.40694 | 4710 ft | 234 kts | 163° |
| 2026-05-07 11:52 | 18.13212 | 102.41637 | 4242 ft | 235 kts | 140° |
| 2026-05-07 11:52 | 18.12002 | 102.42776 | 3895 ft | 231 kts | 138° |
| 2026-05-07 11:53 | 18.10857 | 102.43906 | 3587 ft | 223 kts | 137° |
| 2026-05-07 11:53 | 18.09756 | 102.45018 | 3324 ft | 205 kts | 137° |
| 2026-05-07 11:53 | 18.08810 | 102.45986 | 3040 ft | 180 kts | 137° |
| 2026-05-07 11:53 | 18.07952 | 102.46869 | 2751 ft | 164 kts | 137° |
| 2026-05-07 11:54 | 18.07159 | 102.47684 | 2532 ft | 159 kts | 136° |
| 2026-05-07 11:54 | 18.06396 | 102.48473 | 2318 ft | 147 kts | 136° |
| 2026-05-07 11:54 | 18.05699 | 102.49194 | 2093 ft | 136 kts | 136° |
| 2026-05-07 11:54 | 18.05039 | 102.49878 | 1932 ft | 131 kts | 135° |
| 2026-05-07 11:55 | 18.04391 | 102.50549 | 1800 ft | 132 kts | 135° |
| 2026-05-07 11:55 | 18.03735 | 102.51229 | 1650 ft | 134 kts | 134° |
| 2026-05-07 11:55 | 18.03064 | 102.51920 | 1501 ft | 132 kts | 135° |
| 2026-05-07 11:55 | 18.02410 | 102.52604 | 1342 ft | 133 kts | 135° |
| 2026-05-07 11:56 | 18.01750 | 102.53304 | 1132 ft | 134 kts | 135° |
| 2026-05-07 11:56 | 18.01096 | 102.53987 | 931 ft | 131 kts | 136° |
| 2026-05-07 11:56 | 18.00448 | 102.54656 | 737 ft | 131 kts | 136° |
| 2026-05-07 11:56 | 17.99803 | 102.55325 | 574 ft | 129 kts | 137° |
| 2026-05-07 11:57 | 17.99196 | 102.55952 | 554 ft | 108 kts | 136° |
| 2026-05-07 11:57 | 17.98779 | 102.56379 | 554 ft | 64 kts | 135° |
| 2026-05-07 11:57 | 17.98475 | 102.56690 | 554 ft | 57 kts | 135° |
| 2026-05-07 11:57 | 17.98273 | 102.56860 | 554 ft | 14 kts | 170° |
| 2026-05-07 11:58 | 17.98198 | 102.56883 | 554 ft | 11 kts | 163° |
| 2026-05-07 11:58 | 17.98114 | 102.56905 | 554 ft | 13 kts | 166° |
| 2026-05-07 11:58 | 17.98020 | 102.56931 | 554 ft | 15 kts | 165° |
| 2026-05-07 11:58 | 17.97910 | 102.56962 | 556 ft | 16 kts | 166° |
| 2026-05-07 11:59 | 17.97801 | 102.56986 | 557 ft | 15 kts | 195° |
| 2026-05-07 11:59 | 17.97728 | 102.56919 | 557 ft | 11 kts | 240° |
| 2026-05-07 11:59 | 17.97753 | 102.56859 | 557 ft | 9 kts | 310° |
| 2026-05-07 11:59 | 17.97756 | 102.56815 | 557 ft | 4 kts | 228° |
| 2026-05-07 12:00 | 17.97734 | 102.56792 | 557 ft | 2 kts | 224° |
| 2026-05-07 12:00 | 17.97730 | 102.56787 | 557 ft | 0 kts | 225° |